Bloomfield, NM (87413)

5:18 PM MDT on August 20, 2014 (GMT -0600)
Aztec, NM 87410 | Change Station
CLOSE
Current Station
Personal Weather Station
Location: Aztec, NM
Elevation: 5682 ft
Nearby Weather Stations

Elev 5682 ft 36.82 °N, 107.99 °W | Updated 2 minutes ago

Clear
Clear
88.5 °F
Feels Like 85 °F
N
1.7
Wind Variable Wind from SSE

Today
High -- | Low -- °F
--% Chance of Precip.
Yesterday
High -- | Low -- °F
Precip. -- in
6:33 AM 7:56 PM
Waning Crescent, 18% visible
Pressure 29.86 in
Visibility 10.0 miles
Clouds Clear
Heat Index 85 °F
Dew Point 45 °F
Humidity 22%
Rainfall 0.00 in
Snow Depth Not available.
UV 4 out of 12
Pollen 5.60 out of 12
Air Quality Not available.
Flu Activity Not available.
METAR KFMN 202253Z 28015G22KT 10SM CLR 29/04 A3004 RMK AO2 PK WND 29026/2215 SLP110 T02890039

More Conditions Fewer Conditions

Pressure 29.86 in
Visibility 10.0 miles
Clouds Clear
Heat Index 85 °F
Dew Point 45 °F
Humidity 22%
Rainfall 0.00 in
Snow Depth Not available.
UV 4 out of 12
Pollen 5.60 out of 12
Air Quality Not available.
Flu Activity Not available.
METAR KFMN 202253Z 28015G22KT 10SM CLR 29/04 A3004 RMK AO2 PK WND 29026/2215 SLP110 T02890039

More Conditions Fewer Conditions

10-Day Weather Forecast

Almanac

Astronomy

Aug. 20, 2014 Rise Set
Actual Time 6:33 AM MDT 7:56 PM MDT
Civil Twilight 6:06 AM MDT 8:23 PM MDT
Nautical Twilight 5:33 AM MDT 8:56 PM MDT
Astronomical Twilight 4:59 AM MDT 9:29 PM MDT
Moon 2:18 AM MDT 4:41 PM MDT
Length of Visible Light 14h 17m
Length of Day
13h 23m
Tomorrow will be 2m 7s shorter.
Waning Crescent, 18% of the Moon is Illuminated
Today
Waning Crescent
Aug 25
New
Sep 2
First Quarter
Sep 8
Full
Sep 15
Last Quarter

Today's Extremes

State Highs State Lows

Community

WunderPhotos

Upload Photos

1,745,791 photos uploaded!

Nearby

Snow Depth

Station Depth Elevation
Chamita 0 in 8400 ft
Santa Fe 0 in 11445 ft
Red River Pass #2 0 in 9850 ft
North Costilla 0 in 10600 ft
Wesner Springs 1 in 11120 ft

Earthquake Activity

City Distance Mag. Time & Date
No recent earthquake activity has been reported nearby.
Minimum magnitude displayed is 2.5.

Coastal Water Temperatures

Place Temperature
No Stations Reporting

Nearby Weather Stations